createdAt,value
2024-02-21T00:01:41.293Z,100.00
2024-02-21T00:04:08.935Z,100.00
2024-02-21T00:06:36.536Z,100.00
2024-02-21T00:09:04.154Z,100.00
2024-02-21T00:11:31.776Z,100.00
2024-02-21T00:13:59.454Z,100.00
2024-02-21T00:16:27.137Z,100.00
2024-02-21T00:18:56.194Z,100.00
2024-02-21T00:21:23.823Z,100.00
2024-02-21T00:23:51.451Z,100.00
2024-02-21T00:26:19.050Z,100.00
2024-02-21T00:28:46.718Z,100.00
2024-02-21T00:31:14.558Z,100.00
2024-02-21T00:33:42.173Z,100.00
2024-02-21T00:36:11.125Z,100.00
2024-02-21T00:38:38.700Z,100.00
2024-02-21T00:41:06.336Z,100.00
2024-02-21T00:43:34.019Z,100.00
2024-02-21T00:46:01.650Z,100.00
2024-02-21T00:48:29.650Z,100.00
2024-02-21T00:50:57.390Z,100.00
2024-02-21T00:53:26.390Z,100.00
2024-02-21T00:55:54.120Z,100.00
2024-02-21T00:58:22.014Z,100.00
2024-02-21T01:00:49.883Z,100.00
2024-02-21T01:03:17.545Z,100.00
2024-02-21T01:05:45.179Z,100.00
2024-02-21T01:08:13.074Z,100.00
2024-02-21T01:10:42.153Z,100.00
2024-02-21T01:13:09.838Z,100.00
2024-02-21T01:15:37.708Z,100.00
2024-02-21T01:18:05.509Z,100.00
2024-02-21T01:20:33.195Z,100.00
2024-02-21T01:23:02.115Z,100.00
2024-02-21T01:25:29.852Z,100.00
2024-02-21T01:27:59.269Z,100.00
2024-02-21T01:30:26.877Z,100.00
2024-02-21T01:32:54.524Z,100.00
2024-02-21T01:35:22.189Z,100.00
2024-02-21T01:37:49.947Z,100.00
2024-02-21T01:40:17.847Z,100.00
2024-02-21T01:42:45.512Z,100.00
2024-02-21T01:45:16.991Z,100.00
2024-02-21T01:47:47.076Z,100.00
2024-02-21T01:50:16.817Z,100.00
2024-02-21T01:52:48.817Z,100.00
2024-02-21T01:55:17.312Z,100.00
2024-02-21T01:57:45.802Z,100.00
2024-02-21T02:00:17.158Z,100.00
2024-02-21T02:02:45.228Z,100.00
2024-02-21T02:05:12.857Z,100.00
2024-02-21T02:07:40.434Z,100.00
2024-02-21T02:10:08.903Z,100.00
2024-02-21T02:12:36.834Z,100.00
2024-02-21T02:15:05.172Z,100.00
2024-02-21T02:17:34.160Z,100.00
2024-02-21T02:20:02.238Z,100.00
2024-02-21T02:22:32.749Z,100.00
2024-02-21T02:25:02.804Z,100.00
2024-02-21T02:27:30.408Z,100.00
2024-02-21T02:29:57.995Z,100.00
2024-02-21T02:32:25.634Z,100.00
2024-02-21T02:34:53.291Z,100.00
2024-02-21T02:37:21.067Z,100.00
2024-02-21T02:39:48.666Z,100.00
2024-02-21T02:42:17.580Z,100.00
2024-02-21T02:44:45.495Z,100.00
2024-02-21T02:47:13.151Z,100.00
2024-02-21T02:49:40.792Z,100.00
2024-02-21T02:52:08.486Z,100.00
2024-02-21T02:54:36.091Z,100.00
2024-02-21T02:57:03.844Z,100.00
2024-02-21T02:59:32.777Z,100.00
2024-02-21T03:02:00.445Z,100.00
2024-02-21T03:04:28.273Z,100.00
2024-02-21T03:06:55.974Z,100.00
2024-02-21T03:09:23.596Z,100.00
2024-02-21T03:11:51.505Z,100.00
2024-02-21T03:14:19.299Z,100.00
2024-02-21T03:16:48.266Z,100.00
2024-02-21T03:19:16.047Z,100.00
2024-02-21T03:21:43.636Z,100.00
2024-02-21T03:24:11.338Z,100.00
2024-02-21T03:26:38.915Z,100.00
2024-02-21T03:29:06.532Z,100.00
2024-02-21T03:31:34.304Z,100.00
2024-02-21T03:34:03.346Z,100.00
2024-02-21T03:36:31.016Z,100.00
2024-02-21T03:38:58.662Z,100.00
2024-02-21T03:41:26.273Z,100.00
2024-02-21T03:43:53.885Z,100.00
2024-02-21T03:46:21.809Z,100.00
2024-02-21T03:48:49.512Z,100.00
2024-02-21T03:51:18.581Z,100.00
2024-02-21T03:53:46.237Z,100.00
2024-02-21T03:56:13.820Z,100.00
2024-02-21T03:58:41.477Z,100.00
2024-02-21T04:01:09.218Z,100.00
2024-02-21T04:03:37.391Z,100.00
2024-02-21T04:06:05.625Z,100.00
2024-02-21T04:08:34.678Z,100.00
2024-02-21T04:11:02.489Z,100.00
2024-02-21T04:13:30.152Z,100.00
2024-02-21T04:15:57.842Z,100.00
2024-02-21T04:18:25.424Z,100.00
2024-02-21T04:20:53.109Z,100.00
2024-02-21T04:23:20.734Z,100.00
2024-02-21T04:25:49.813Z,100.00
2024-02-21T04:28:17.551Z,100.00
2024-02-21T04:30:45.301Z,100.00
2024-02-21T04:33:13.012Z,100.00
2024-02-21T04:35:40.694Z,100.00
2024-02-21T04:38:08.402Z,100.00
2024-02-21T04:40:36.021Z,100.00
2024-02-21T04:43:05.078Z,100.00
2024-02-21T04:45:32.661Z,100.00
2024-02-21T04:48:00.358Z,100.00
2024-02-21T04:50:28.034Z,100.00
2024-02-21T04:52:55.733Z,100.00
2024-02-21T04:55:23.422Z,100.00
2024-02-21T04:57:51.039Z,100.00
2024-02-21T05:00:20.714Z,100.00
2024-02-21T05:02:48.366Z,100.00
2024-02-21T05:05:16.280Z,100.00
2024-02-21T05:07:44.030Z,100.00
2024-02-21T05:10:11.718Z,100.00
2024-02-21T05:12:39.288Z,100.00
2024-02-21T05:15:07.841Z,100.00
2024-02-21T05:17:37.016Z,100.00
2024-02-21T05:20:05.566Z,100.00
2024-02-21T05:22:33.404Z,100.00
2024-02-21T05:25:01.072Z,100.00
2024-02-21T05:27:28.695Z,100.00
2024-02-21T05:29:56.287Z,100.00
2024-02-21T05:32:23.897Z,100.00
2024-02-21T05:34:52.943Z,100.00
2024-02-21T05:37:20.577Z,100.00
2024-02-21T05:39:48.215Z,100.00
2024-02-21T05:42:15.829Z,100.00
2024-02-21T05:44:43.394Z,100.00
2024-02-21T05:47:11.086Z,100.00
2024-02-21T05:49:38.944Z,100.00
2024-02-21T05:52:08.224Z,100.00
2024-02-21T05:54:38.756Z,100.00
2024-02-21T05:57:06.748Z,100.00
2024-02-21T05:59:34.363Z,100.00
2024-02-21T06:02:01.958Z,100.00
2024-02-21T06:04:29.701Z,100.00
2024-02-21T06:06:57.415Z,100.00
2024-02-21T06:09:26.371Z,100.00
2024-02-21T06:11:54.160Z,100.00
2024-02-21T06:14:21.795Z,100.00
2024-02-21T06:16:49.512Z,100.00
2024-02-21T06:19:17.392Z,100.00
2024-02-21T06:21:45.183Z,100.00
2024-02-21T06:24:12.773Z,100.00
2024-02-21T06:26:42.013Z,100.00
2024-02-21T06:29:09.615Z,100.00
2024-02-21T06:31:37.457Z,100.00
2024-02-21T06:34:05.471Z,100.00
2024-02-21T06:36:33.197Z,100.00
2024-02-21T06:39:00.900Z,100.00
2024-02-21T06:41:28.501Z,100.00
2024-02-21T06:43:57.585Z,100.00
2024-02-21T06:46:26.047Z,100.00
2024-02-21T06:48:53.916Z,100.00
2024-02-21T06:51:21.606Z,100.00
2024-02-21T06:53:49.292Z,100.00
2024-02-21T06:56:16.957Z,100.00
2024-02-21T06:58:44.801Z,100.00
2024-02-21T07:01:13.840Z,100.00
2024-02-21T07:03:41.483Z,100.00
2024-02-21T07:06:09.189Z,100.00
2024-02-21T07:08:36.864Z,100.00
2024-02-21T07:11:04.834Z,100.00
2024-02-21T07:13:33.603Z,100.00
2024-02-21T07:16:01.268Z,100.00
2024-02-21T07:18:30.251Z,100.00
2024-02-21T07:20:57.887Z,100.00
2024-02-21T07:23:25.521Z,100.00
2024-02-21T07:25:53.224Z,100.00
2024-02-21T07:28:20.896Z,100.00
2024-02-21T07:30:48.530Z,100.00
2024-02-21T07:33:16.199Z,100.00
2024-02-21T07:35:45.263Z,100.00
2024-02-21T07:38:12.954Z,100.00
2024-02-21T07:40:40.675Z,100.00
2024-02-21T07:43:08.498Z,100.00
2024-02-21T07:45:36.168Z,100.00
2024-02-21T07:48:04.484Z,100.00
2024-02-21T07:50:32.420Z,100.00
2024-02-21T07:53:01.555Z,100.00
2024-02-21T07:55:29.257Z,100.00
2024-02-21T07:57:57.225Z,100.00
2024-02-21T08:00:24.830Z,100.00
2024-02-21T08:02:52.606Z,100.00
2024-02-21T08:05:20.354Z,100.00
2024-02-21T08:07:49.636Z,100.00
2024-02-21T08:10:19.111Z,100.00
2024-02-21T08:12:47.007Z,100.00
2024-02-21T08:15:14.799Z,100.00
2024-02-21T08:17:42.434Z,100.00
2024-02-21T08:20:11.538Z,100.00
2024-02-21T08:22:39.402Z,100.00
2024-02-21T08:25:07.555Z,100.00
2024-02-21T08:27:38.347Z,100.00
2024-02-21T08:30:07.057Z,100.00
2024-02-21T08:32:34.928Z,100.00
2024-02-21T08:35:02.651Z,100.00
2024-02-21T08:37:30.307Z,100.00
2024-02-21T08:39:57.951Z,100.00
2024-02-21T08:42:25.527Z,100.00
2024-02-21T08:44:54.465Z,100.00
2024-02-21T08:47:22.034Z,100.00
2024-02-21T08:49:49.711Z,100.00
2024-02-21T08:52:17.339Z,100.00
2024-02-21T08:54:44.923Z,100.00
2024-02-21T08:57:12.559Z,100.00
2024-02-21T08:59:40.220Z,100.00
2024-02-21T09:02:09.234Z,100.00
2024-02-21T09:04:37.042Z,100.00
2024-02-21T09:07:05.119Z,100.00
2024-02-21T09:09:32.848Z,100.00
2024-02-21T09:12:00.644Z,100.00
2024-02-21T09:14:28.383Z,100.00
2024-02-21T09:16:56.051Z,100.00
2024-02-21T09:19:25.445Z,100.00
2024-02-21T09:21:53.237Z,100.00
2024-02-21T09:24:20.894Z,100.00
2024-02-21T09:26:48.489Z,100.00
2024-02-21T09:29:16.238Z,100.00
2024-02-21T09:31:44.230Z,100.00
2024-02-21T09:34:11.943Z,100.00
2024-02-21T09:36:40.981Z,100.00
2024-02-21T09:39:08.648Z,100.00
2024-02-21T09:41:40.899Z,100.00
2024-02-21T09:44:13.198Z,100.00
2024-02-21T09:46:56.813Z,100.00
2024-02-21T09:49:31.923Z,100.00
2024-02-21T09:52:02.975Z,100.00
2024-02-21T09:54:30.915Z,100.00
2024-02-21T09:56:58.548Z,100.00
2024-02-21T09:59:28.392Z,100.00
2024-02-21T10:01:56.160Z,100.00
2024-02-21T10:04:24.931Z,100.00
2024-02-21T10:06:54.298Z,100.00
2024-02-21T10:09:24.607Z,100.00
2024-02-21T10:11:53.360Z,100.00
2024-02-21T10:14:21.433Z,100.00
2024-02-21T10:16:50.348Z,100.00
2024-02-21T10:19:19.047Z,100.00
2024-02-21T10:22:00.941Z,100.00
2024-02-21T10:24:30.430Z,100.00
2024-02-21T10:27:02.902Z,100.00
2024-02-21T10:29:31.233Z,100.00
2024-02-21T10:32:09.797Z,100.00
2024-02-21T10:34:38.940Z,100.00
2024-02-21T10:37:08.275Z,100.00
2024-02-21T10:39:39.379Z,100.00
2024-02-21T10:42:07.192Z,100.00
2024-02-21T10:44:38.691Z,100.00
2024-02-21T10:47:09.705Z,94.02
2024-02-21T10:49:40.680Z,98.04
2024-02-21T10:52:15.556Z,88.75
2024-02-21T10:54:54.320Z,87.21
2024-02-21T10:57:24.254Z,79.88
2024-02-21T10:59:52.246Z,72.46
2024-02-21T11:02:21.163Z,74.45
2024-02-21T11:04:50.962Z,70.96
2024-02-21T11:07:20.096Z,65.72
2024-02-21T11:09:54.582Z,65.94
2024-02-21T11:12:23.596Z,66.03
2024-02-21T11:14:51.459Z,68.04
2024-02-21T11:17:20.635Z,72.67
2024-02-21T11:19:51.157Z,70.72
2024-02-21T11:22:21.527Z,72.15
2024-02-21T11:24:49.275Z,89.64
2024-02-21T11:27:21.464Z,97.37
2024-02-21T11:29:50.748Z,97.05
2024-02-21T11:32:20.449Z,82.97
2024-02-21T11:34:55.763Z,92.50
2024-02-21T11:37:26.305Z,82.78
2024-02-21T11:39:54.368Z,78.29
2024-02-21T11:42:23.613Z,86.79
2024-02-21T11:44:51.229Z,81.27
2024-02-21T11:47:19.189Z,86.83
2024-02-21T11:49:48.414Z,91.21
2024-02-21T11:52:16.165Z,92.67
2024-02-21T11:54:43.937Z,86.75
2024-02-21T11:57:12.142Z,100.00
2024-02-21T11:59:42.965Z,100.00
2024-02-21T12:02:12.389Z,100.00
2024-02-21T12:04:40.372Z,100.00
2024-02-21T12:07:08.286Z,100.00
2024-02-21T12:09:36.186Z,100.00
2024-02-21T12:12:06.089Z,100.00
2024-02-21T12:14:35.550Z,100.00
2024-02-21T12:17:04.977Z,100.00
2024-02-21T12:19:34.676Z,100.00
2024-02-21T12:22:02.905Z,100.00
2024-02-21T12:24:30.628Z,100.00
2024-02-21T12:26:58.512Z,100.00
2024-02-21T12:29:26.434Z,100.00
2024-02-21T12:31:54.697Z,100.00
2024-02-21T12:34:31.444Z,100.00
2024-02-21T12:37:06.413Z,100.00
2024-02-21T12:39:34.008Z,100.00
2024-02-21T12:42:01.698Z,100.00
2024-02-21T12:44:29.313Z,100.00
2024-02-21T12:46:56.999Z,100.00
2024-02-21T12:49:26.792Z,100.00
2024-02-21T12:51:54.545Z,100.00
2024-02-21T12:54:22.203Z,100.00
2024-02-21T12:56:49.962Z,100.00
2024-02-21T12:59:19.968Z,100.00
2024-02-21T13:01:47.927Z,100.00
2024-02-21T13:04:15.785Z,100.00
2024-02-21T13:06:44.769Z,100.00
2024-02-21T13:09:12.722Z,100.00
2024-02-21T13:11:40.649Z,97.43
2024-02-21T13:14:08.489Z,97.46
2024-02-21T13:16:36.310Z,100.00
2024-02-21T13:19:04.140Z,100.00
2024-02-21T13:21:31.956Z,100.00
2024-02-21T13:24:00.899Z,100.00
2024-02-21T13:26:28.533Z,100.00
2024-02-21T13:28:56.555Z,100.00
2024-02-21T13:31:25.551Z,100.00
2024-02-21T13:33:53.705Z,100.00
2024-02-21T13:36:21.536Z,100.00
2024-02-21T13:38:49.229Z,100.00
2024-02-21T13:41:18.304Z,100.00
2024-02-21T13:43:45.949Z,100.00
2024-02-21T13:46:13.588Z,100.00
2024-02-21T13:48:41.248Z,100.00
2024-02-21T13:51:08.868Z,94.32
2024-02-21T13:53:36.607Z,87.64
2024-02-21T13:56:04.805Z,81.60
2024-02-21T13:58:33.860Z,76.79
2024-02-21T14:01:01.523Z,97.39
2024-02-21T14:03:29.242Z,100.00
2024-02-21T14:05:56.926Z,100.00
2024-02-21T14:08:24.559Z,100.00
2024-02-21T14:10:52.323Z,100.00
2024-02-21T14:13:20.019Z,100.00
2024-02-21T14:15:48.986Z,100.00
2024-02-21T14:18:16.945Z,100.00
2024-02-21T14:20:44.575Z,100.00
2024-02-21T14:23:12.370Z,100.00
2024-02-21T14:25:40.553Z,100.00
2024-02-21T14:28:09.069Z,100.00
2024-02-21T14:30:37.018Z,100.00
2024-02-21T14:33:06.291Z,100.00
2024-02-21T14:35:34.069Z,100.00
2024-02-21T14:38:02.034Z,100.00
2024-02-21T14:40:29.690Z,100.00
2024-02-21T14:42:57.317Z,100.00
2024-02-21T14:45:24.948Z,100.00
2024-02-21T14:47:52.674Z,100.00
2024-02-21T14:50:21.655Z,100.00
2024-02-21T14:52:49.316Z,100.00
2024-02-21T14:55:17.141Z,100.00
2024-02-21T14:57:44.859Z,100.00
2024-02-21T15:00:13.350Z,100.00
2024-02-21T15:02:41.051Z,100.00
2024-02-21T15:05:09.361Z,100.00
2024-02-21T15:07:39.205Z,100.00
2024-02-21T15:10:07.132Z,96.49
2024-02-21T15:12:34.737Z,96.17
2024-02-21T15:15:02.366Z,88.93
2024-02-21T15:17:30.001Z,90.83
2024-02-21T15:19:57.806Z,93.94
2024-02-21T15:22:25.583Z,92.53
2024-02-21T15:24:54.630Z,88.12
2024-02-21T15:27:22.222Z,91.71
2024-02-21T15:29:49.862Z,86.74
2024-02-21T15:32:17.515Z,84.45
2024-02-21T15:34:46.454Z,82.81
2024-02-21T15:37:14.173Z,81.43
2024-02-21T15:39:41.810Z,84.59
2024-02-21T15:42:11.162Z,85.15
2024-02-21T15:44:38.898Z,100.00
2024-02-21T15:47:06.776Z,100.00
2024-02-21T15:49:34.535Z,100.00
2024-02-21T15:52:02.543Z,100.00
2024-02-21T15:54:30.215Z,100.00
2024-02-21T15:56:57.791Z,100.00
2024-02-21T15:59:26.804Z,100.00
2024-02-21T16:01:54.459Z,100.00
2024-02-21T16:04:22.235Z,100.00
2024-02-21T16:06:49.942Z,100.00
2024-02-21T16:09:17.984Z,100.00
2024-02-21T16:11:45.664Z,100.00
2024-02-21T16:14:13.357Z,100.00
2024-02-21T16:16:42.368Z,100.00
2024-02-21T16:19:10.118Z,100.00
2024-02-21T16:21:37.788Z,100.00
2024-02-21T16:24:05.885Z,100.00
2024-02-21T16:26:35.537Z,100.00
2024-02-21T16:29:04.398Z,100.00
2024-02-21T16:31:32.068Z,100.00
2024-02-21T16:34:01.128Z,100.00
2024-02-21T16:36:28.768Z,100.00
2024-02-21T16:39:00.207Z,100.00
2024-02-21T16:41:28.177Z,100.00
2024-02-21T16:43:55.855Z,100.00
2024-02-21T16:46:23.508Z,100.00
2024-02-21T16:48:51.108Z,100.00
2024-02-21T16:51:21.127Z,100.00
2024-02-21T16:53:48.950Z,100.00
2024-02-21T16:56:16.735Z,100.00
2024-02-21T16:58:44.369Z,100.00
2024-02-21T17:01:14.159Z,100.00
2024-02-21T17:03:42.960Z,100.00
2024-02-21T17:06:16.576Z,100.00
2024-02-21T17:08:47.773Z,100.00
2024-02-21T17:11:15.949Z,100.00
2024-02-21T17:13:43.794Z,100.00
2024-02-21T17:16:11.460Z,100.00
2024-02-21T17:18:39.222Z,100.00
2024-02-21T17:21:07.434Z,100.00
2024-02-21T17:23:35.008Z,100.00
2024-02-21T17:26:04.490Z,100.00
2024-02-21T17:28:32.896Z,100.00
2024-02-21T17:31:00.820Z,100.00
2024-02-21T17:33:33.086Z,100.00
2024-02-21T17:36:00.738Z,100.00
2024-02-21T17:38:28.339Z,100.00
2024-02-21T17:40:56.269Z,100.00
2024-02-21T17:43:25.256Z,100.00
2024-02-21T17:45:53.165Z,100.00
2024-02-21T17:48:20.841Z,100.00
2024-02-21T17:50:48.505Z,100.00
2024-02-21T17:53:16.162Z,100.00
2024-02-21T17:55:43.913Z,100.00
2024-02-21T17:58:11.624Z,100.00
2024-02-21T18:00:40.575Z,100.00
2024-02-21T18:03:10.243Z,100.00
2024-02-21T18:05:39.107Z,100.00
2024-02-21T18:08:07.326Z,100.00
2024-02-21T18:10:35.053Z,100.00
2024-02-21T18:13:02.706Z,100.00
2024-02-21T18:15:30.361Z,100.00
2024-02-21T18:17:59.470Z,100.00
2024-02-21T18:20:27.192Z,100.00
2024-02-21T18:22:54.978Z,100.00
2024-02-21T18:25:22.803Z,100.00
2024-02-21T18:27:50.454Z,100.00
2024-02-21T18:30:18.314Z,100.00
2024-02-21T18:32:45.954Z,100.00
2024-02-21T18:35:15.192Z,100.00
2024-02-21T18:37:43.064Z,100.00
2024-02-21T18:40:11.337Z,100.00
2024-02-21T18:42:39.384Z,100.00
2024-02-21T18:45:07.880Z,100.00
2024-02-21T18:47:35.862Z,97.42
2024-02-21T18:50:04.101Z,93.71
2024-02-21T18:52:33.372Z,95.64
2024-02-21T18:55:01.963Z,87.19
2024-02-21T18:57:29.584Z,86.55
2024-02-21T18:59:57.191Z,81.30
2024-02-21T19:02:24.813Z,82.49
2024-02-21T19:04:52.641Z,99.19
2024-02-21T19:07:20.318Z,99.70
2024-02-21T19:09:49.299Z,100.00
2024-02-21T19:12:16.927Z,100.00
2024-02-21T19:14:44.526Z,100.00
2024-02-21T19:17:12.195Z,100.00
2024-02-21T19:19:39.880Z,100.00
2024-02-21T19:22:07.465Z,100.00
2024-02-21T19:24:35.107Z,100.00
2024-02-21T19:27:04.715Z,100.00
2024-02-21T19:29:32.323Z,100.00
2024-02-21T19:32:00.007Z,100.00
2024-02-21T19:34:28.347Z,100.00
2024-02-21T19:36:56.018Z,100.00
2024-02-21T19:39:23.582Z,100.00
2024-02-21T19:41:51.156Z,100.00
2024-02-21T19:44:20.127Z,100.00
2024-02-21T19:46:48.796Z,100.00
2024-02-21T19:49:16.639Z,100.00
2024-02-21T19:51:44.271Z,100.00
2024-02-21T19:54:23.152Z,100.00
2024-02-21T19:56:52.295Z,100.00
2024-02-21T19:59:21.442Z,100.00
2024-02-21T20:01:49.281Z,100.00
2024-02-21T20:04:17.251Z,100.00
2024-02-21T20:06:45.234Z,100.00
2024-02-21T20:09:12.951Z,100.00
2024-02-21T20:11:40.805Z,100.00
2024-02-21T20:14:08.567Z,100.00
2024-02-21T20:16:37.754Z,100.00
2024-02-21T20:19:05.494Z,100.00
2024-02-21T20:21:33.138Z,100.00
2024-02-21T20:24:02.166Z,100.00
2024-02-21T20:26:29.850Z,100.00
2024-02-21T20:28:57.466Z,100.00
2024-02-21T20:31:25.193Z,100.00
2024-02-21T20:33:54.240Z,100.00
2024-02-21T20:36:21.828Z,100.00
2024-02-21T20:38:49.479Z,100.00
2024-02-21T20:41:17.610Z,100.00
2024-02-21T20:43:45.655Z,100.00
2024-02-21T20:46:14.252Z,100.00
2024-02-21T20:48:42.253Z,100.00
2024-02-21T20:51:11.200Z,100.00
2024-02-21T20:53:38.765Z,100.00
2024-02-21T20:56:07.123Z,100.00
2024-02-21T20:58:34.814Z,100.00
2024-02-21T21:01:02.898Z,100.00
2024-02-21T21:03:32.607Z,93.47
2024-02-21T21:06:01.068Z,90.67
2024-02-21T21:08:30.068Z,87.15
2024-02-21T21:10:57.842Z,81.94
2024-02-21T21:13:30.869Z,81.53
2024-02-21T21:16:02.928Z,80.75
2024-02-21T21:18:31.020Z,82.89
2024-02-21T21:20:59.578Z,81.33
2024-02-21T21:23:27.415Z,85.42
2024-02-21T21:25:56.509Z,82.29
2024-02-21T21:28:24.353Z,82.28
2024-02-21T21:30:52.082Z,80.57
2024-02-21T21:33:19.897Z,79.51
2024-02-21T21:35:47.744Z,79.47
2024-02-21T21:38:15.385Z,79.49
2024-02-21T21:40:43.235Z,80.78
2024-02-21T21:43:12.394Z,80.14
2024-02-21T21:45:39.970Z,83.72
2024-02-21T21:48:08.888Z,81.42
2024-02-21T21:50:36.579Z,83.26
2024-02-21T21:53:04.829Z,81.78
2024-02-21T21:55:32.735Z,80.15
2024-02-21T21:58:00.475Z,80.75
2024-02-21T22:00:29.458Z,81.60
2024-02-21T22:02:57.040Z,85.95
2024-02-21T22:05:24.696Z,81.56
2024-02-21T22:07:52.377Z,82.62
2024-02-21T22:10:20.029Z,83.54
2024-02-21T22:12:47.641Z,78.23
2024-02-21T22:15:15.436Z,78.71
2024-02-21T22:17:44.481Z,79.42
2024-02-21T22:20:12.438Z,81.54
2024-02-21T22:22:40.261Z,90.83
2024-02-21T22:25:08.656Z,100.00
2024-02-21T22:27:36.325Z,100.00
2024-02-21T22:30:04.874Z,100.00
2024-02-21T22:32:32.645Z,100.00
2024-02-21T22:35:02.191Z,100.00
2024-02-21T22:37:29.941Z,100.00
2024-02-21T22:39:58.461Z,100.00
2024-02-21T22:42:26.102Z,100.00
2024-02-21T22:44:53.724Z,100.00
2024-02-21T22:47:22.304Z,100.00
2024-02-21T22:49:50.033Z,100.00
2024-02-21T22:52:19.063Z,100.00
2024-02-21T22:54:46.706Z,100.00
2024-02-21T22:57:14.350Z,100.00
2024-02-21T22:59:42.030Z,100.00
2024-02-21T23:02:09.822Z,100.00
2024-02-21T23:04:37.706Z,100.00
2024-02-21T23:07:05.762Z,100.00
2024-02-21T23:09:34.859Z,100.00
2024-02-21T23:12:02.708Z,100.00
2024-02-21T23:14:31.970Z,100.00
2024-02-21T23:16:59.679Z,100.00
2024-02-21T23:19:27.520Z,100.00
2024-02-21T23:21:55.433Z,100.00
2024-02-21T23:24:23.121Z,100.00
2024-02-21T23:26:52.227Z,100.00
2024-02-21T23:29:19.966Z,100.00
2024-02-21T23:31:47.664Z,100.00
2024-02-21T23:34:15.352Z,100.00
2024-02-21T23:36:43.073Z,100.00
2024-02-21T23:39:10.784Z,100.00
2024-02-21T23:41:38.594Z,100.00
2024-02-21T23:44:07.893Z,100.00
2024-02-21T23:46:35.661Z,100.00
2024-02-21T23:49:03.523Z,100.00
2024-02-21T23:51:31.386Z,100.00
2024-02-21T23:53:59.615Z,100.00
2024-02-21T23:56:27.292Z,100.00
2024-02-21T23:58:55.200Z,100.00
